Date,TemperatureHighF,TemperatureAvgF,TemperatureLowF,DewpointHighF,DewpointAvgF,DewpointLowF,HumidityHigh,HumidityAvg,HumidityLow,PressureMaxIn,PressureMinIn,WindSpeedMaxMPH,WindSpeedAvgMPH,GustSpeedMaxMPH,PrecipitationSumIn
2013-3-1,70.1,57.2,47.0,45.8,41.2,36.5,68,56,32,30.53,30.35,7,2,10,0.00
2013-3-2,69.6,59.0,52.0,42.0,38.4,33.2,62,48,28,30.36,30.15,9,2,10,0.00
2013-3-3,60.7,51.5,45.4,48.2,44.3,41.5,91,77,58,30.17,30.11,8,3,10,0.02
2013-3-4,62.6,51.2,42.2,45.3,41.7,35.7,89,72,39,30.22,30.11,8,2,10,0.00
2013-3-5,57.3,48.5,42.2,44.5,39.5,35.0,88,72,47,30.15,29.93,8,2,11,0.00
2013-3-6,47.7,41.4,38.2,42.0,37.7,33.8,96,87,68,30.19,29.95,12,3,23,0.64
2013-3-7,51.0,42.0,35.6,38.8,35.2,31.5,90,78,52,30.13,29.98,6,2,13,0.00
2013-3-8,56.7,46.1,36.0,39.4,35.0,31.0,86,67,44,30.11,29.92,12,3,13,0.01
2013-3-9,61.5,49.3,36.9,38.7,31.4,17.5,94,55,24,30.42,30.11,8,3,15,0.00
2013-3-10,61.8,50.8,40.8,41.8,32.1,14.7,78,50,27,30.47,30.36,8,2,15,0.00
2013-3-11,67.4,54.5,43.6,46.3,40.3,35.1,82,60,40,30.38,30.22,6,1,9,0.00
2013-3-12,71.5,58.6,47.9,47.9,43.8,38.5,76,59,39,30.27,30.18,7,2,9,0.00
2013-3-13,75.6,62.9,52.2,47.6,42.1,36.3,69,48,26,30.28,30.19,10,4,12,0.00
2013-3-14,77.0,63.7,56.6,48.9,41.9,32.5,65,46,28,30.24,30.18,10,3,12,0.00
2013-3-15,72.7,60.8,52.9,45.7,41.5,32.1,65,50,24,30.20,30.12,7,1,7,0.00
2013-3-16,69.8,58.7,48.5,47.7,37.2,24.9,69,46,24,30.16,30.10,5,1,10,0.00
2013-3-17,65.5,54.4,45.2,42.2,34.5,27.8,63,48,35,30.20,30.13,5,1,10,0.00
2013-3-18,67.9,57.0,47.3,41.5,35.6,27.8,61,46,27,30.20,30.13,5,1,8,0.00
2013-3-19,66.1,54.8,46.5,48.2,41.3,34.2,96,63,34,30.23,30.15,7,2,10,0.26
2013-3-20,52.5,48.9,46.2,52.2,48.0,45.1,100,97,94,30.23,30.17,10,2,13,1.09
2013-3-21,58.9,50.4,45.7,49.5,43.7,33.1,100,80,50,30.20,30.11,5,1,12,0.00
2013-3-22,58.4,49.8,41.8,40.7,23.8,8.3,82,38,18,30.18,30.10,8,3,16,0.00
2013-3-23,62.0,51.1,41.8,35.6,25.6,13.9,57,38,22,30.22,30.15,5,2,16,0.00
2013-3-24,68.1,54.9,44.3,40.4,32.8,26.7,60,44,27,30.20,30.07,5,2,9,0.00
2013-3-25,67.6,55.6,47.0,44.6,39.6,35.0,74,56,35,30.09,30.00,10,3,12,0.00
2013-3-26,66.3,54.2,43.1,44.7,40.6,37.7,85,62,39,30.08,29.99,10,1,10,0.00
2013-3-27,67.4,55.2,47.0,48.2,43.3,39.1,82,66,41,30.10,30.02,6,2,7,0.00
2013-3-28,59.8,53.2,48.8,50.6,45.6,43.3,88,76,56,30.22,30.09,7,1,10,0.01
2013-3-29,73.3,60.6,48.8,45.9,41.8,38.2,76,52,30,30.21,30.13,9,3,13,0.00
2013-3-30,72.0,61.9,53.9,52.9,46.0,41.6,74,57,40,30.14,30.05,6,2,10,0.00
2013-3-31,60.1,52.0,46.7,54.1,47.6,42.9,96,86,62,30.19,30.07,7,1,10,0.82